createdAt,value
2023-04-20T00:09:52.316Z,7.72
2023-04-20T00:19:58.475Z,7.52
2023-04-20T00:30:00.089Z,7.33
2023-04-20T00:40:01.674Z,7.40
2023-04-20T00:50:04.037Z,7.25
2023-04-20T01:00:07.548Z,7.11
2023-04-20T01:10:13.203Z,6.90
2023-04-20T01:20:16.364Z,6.93
2023-04-20T01:30:18.038Z,6.78
2023-04-20T01:40:19.814Z,6.71
2023-04-20T01:50:21.686Z,6.78
2023-04-20T02:00:24.743Z,6.78
2023-04-20T02:10:29.523Z,6.70
2023-04-20T02:20:31.256Z,6.45
2023-04-20T02:30:33.949Z,6.35
2023-04-20T02:40:35.801Z,6.25
2023-04-20T02:50:43.310Z,6.19
2023-04-20T03:00:46.510Z,6.09
2023-04-20T03:10:49.374Z,6.07
2023-04-20T03:20:51.630Z,5.89
2023-04-20T03:30:54.509Z,6.02
2023-04-20T03:40:57.421Z,5.86
2023-04-20T03:51:00.665Z,6.02
2023-04-20T04:01:04.216Z,6.27
2023-04-20T04:11:05.852Z,6.28
2023-04-20T04:21:10.386Z,6.49
2023-04-20T04:31:12.415Z,6.69
2023-04-20T04:41:16.243Z,6.86
2023-04-20T04:51:17.865Z,7.14
2023-04-20T05:01:21.279Z,7.45
2023-04-20T05:11:23.140Z,7.82
2023-04-20T05:21:29.087Z,8.41
2023-04-20T05:31:35.554Z,8.73
2023-04-20T05:41:42.704Z,9.02
2023-04-20T05:51:44.381Z,9.39
2023-04-20T06:01:46.132Z,9.73
2023-04-20T06:11:48.067Z,10.16
2023-04-20T06:21:50.010Z,10.63
2023-04-20T06:31:53.412Z,11.24
2023-04-20T06:41:55.383Z,11.68
2023-04-20T06:51:59.229Z,12.22
2023-04-20T07:02:02.111Z,12.90
2023-04-20T07:12:04.244Z,13.41
2023-04-20T07:22:06.446Z,14.01
2023-04-20T07:32:08.216Z,14.48
2023-04-20T07:42:12.220Z,15.12
2023-04-20T07:52:17.365Z,15.66
2023-04-20T08:02:20.598Z,15.75
2023-04-20T08:12:23.733Z,16.23
2023-04-20T08:22:30.594Z,16.36
2023-04-20T08:32:32.312Z,17.15
2023-04-20T08:42:34.049Z,17.41
2023-04-20T08:52:36.210Z,18.08
2023-04-20T09:02:50.492Z,18.83
2023-04-20T09:12:52.869Z,21.91
2023-04-20T09:22:54.626Z,24.27
2023-04-20T09:33:03.089Z,25.90
2023-04-20T09:43:15.207Z,27.58
2023-04-20T09:53:18.136Z,28.82
2023-04-20T10:03:20.616Z,31.54
2023-04-20T10:13:34.519Z,24.66
2023-04-20T10:23:46.865Z,31.49
2023-04-20T10:33:54.690Z,31.02
2023-04-20T10:44:08.975Z,34.42
2023-04-20T10:54:13.166Z,27.12
2023-04-20T11:04:18.368Z,34.73
2023-04-20T11:14:20.769Z,35.71
2023-04-20T11:24:25.921Z,27.94
2023-04-20T11:34:28.216Z,30.69
2023-04-20T11:44:30.051Z,35.04
2023-04-20T11:54:35.615Z,27.26
2023-04-20T12:04:39.178Z,33.46
2023-04-20T12:14:41.252Z,37.53
2023-04-20T12:24:45.680Z,27.16
2023-04-20T12:34:47.390Z,33.20
2023-04-20T12:44:56.374Z,30.86
2023-04-20T12:54:57.980Z,32.82
2023-04-20T13:04:59.638Z,31.09
2023-04-20T13:15:01.378Z,34.59
2023-04-20T13:25:03.784Z,30.32
2023-04-20T13:35:06.654Z,32.71
2023-04-20T13:45:14.745Z,26.68
2023-04-20T13:55:18.177Z,26.87
2023-04-20T14:05:20.917Z,38.73
2023-04-20T14:15:23.559Z,32.94
2023-04-20T14:25:25.902Z,35.03
2023-04-20T14:35:29.631Z,40.39
2023-04-20T14:45:31.213Z,31.95
2023-04-20T14:55:37.835Z,34.71
2023-04-20T15:05:41.144Z,35.87
2023-04-20T15:15:49.920Z,32.99
2023-04-20T15:25:55.069Z,27.87
2023-04-20T15:35:56.942Z,29.05
2023-04-20T15:45:58.842Z,24.13
2023-04-20T15:56:00.564Z,19.69
2023-04-20T16:06:02.358Z,18.62
2023-04-20T16:16:04.213Z,18.80
2023-04-20T16:26:06.319Z,18.85
2023-04-20T16:36:09.179Z,18.51
2023-04-20T16:46:16.410Z,17.76
2023-04-20T16:56:18.647Z,17.49
2023-04-20T17:06:20.486Z,17.41
2023-04-20T17:16:25.708Z,16.99
2023-04-20T17:26:29.129Z,16.45
2023-04-20T17:36:32.029Z,16.15
2023-04-20T17:46:37.316Z,15.91
2023-04-20T17:56:46.505Z,15.78
2023-04-20T18:06:48.381Z,15.76
2023-04-20T18:16:55.625Z,15.64
2023-04-20T18:27:20.320Z,15.55
2023-04-20T18:37:27.587Z,15.48
2023-04-20T18:47:32.297Z,15.45
2023-04-20T18:57:35.756Z,15.29
2023-04-20T19:07:39.281Z,15.18
2023-04-20T19:17:43.404Z,15.06
2023-04-20T19:27:46.578Z,14.94
2023-04-20T19:37:51.798Z,14.63
2023-04-20T19:47:54.428Z,14.46
2023-04-20T19:57:56.798Z,14.29
2023-04-20T20:07:58.912Z,14.19
2023-04-20T20:18:04.318Z,13.64
2023-04-20T20:28:06.924Z,13.45
2023-04-20T20:38:09.076Z,13.06
2023-04-20T20:48:10.937Z,12.72
2023-04-20T20:58:12.704Z,12.46
2023-04-20T21:08:17.464Z,12.29
2023-04-20T21:18:19.380Z,12.14
2023-04-20T21:28:28.220Z,12.07
2023-04-20T21:38:37.456Z,11.93
2023-04-20T21:48:39.292Z,11.53
2023-04-20T21:58:45.378Z,11.28
2023-04-20T22:08:53.287Z,11.24
2023-04-20T22:18:54.942Z,11.11
2023-04-20T22:28:56.847Z,10.85
2023-04-20T22:39:00.734Z,10.57
2023-04-20T22:49:02.530Z,10.39
2023-04-20T22:59:12.343Z,10.23
2023-04-20T23:09:17.278Z,10.06
2023-04-20T23:19:19.288Z,9.75
2023-04-20T23:29:21.225Z,9.47
2023-04-20T23:39:26.964Z,9.38
2023-04-20T23:49:28.887Z,9.21
2023-04-20T23:59:31.280Z,9.22
